Detall de PIREP

Printer-friendly versionPDF version

[2013/10/27 07:13:00]
Flight IATA:CT3220
Pilot Number:012
Company ICAO:CAT
Aircraft Type:C750/F
PAX:4
Departing Airport: LEPA
Destination Airport: LCLK
Alternate Airport:OLBA
Online: VATSIM
Route:MORSS/M080F430 UM603 ORVEX/M080F450 UM601 DASNI UR19 DAROS
Flight Level:F450
No Slew and time accel
No pause
Crash detect
Detect pilot in Cockpit between each 30 and 45 minutes
07:13 Zero fuel Weight: 22944 Lbs, Fuel Weight: 7951 Lbs
07:13 VATSIM:LEPA 270700Z 00000KT 9000 FEW018 17/16 Q1021 NOSIG
07:13 VATSIM:LCLK 270700Z 34009KT CAVOK 25/05 Q1015 NOSIG
07:13 VOICE CATALONIAN
07:33 Parking Brakes off
07:39 Take-off
07:39 Take off Weight: 30755 Lbs
07:39 Wind: 000º @ 000 Knots Heading: 238º
07:39 POS N39º 33´ 19´´ E002º 43´ 41´´
07:39 Gear Up: 160 Knots
07:39 Flaps:3 at 161 Knots
07:39 Flaps:2 at 180 Knots
07:39 Flaps:0 at 183 Knots
07:54 Wind:234º@023 Knots Heading: 065º Ground Speed: 524 Knots Altitude 40951 ft
08:09 Wind:242º@023 Knots Heading: 075º Ground Speed: 526 Knots Altitude 43257 ft
08:24 Wind:253º@021 Knots Heading: 113º Ground Speed: 519 Knots Altitude 43293 ft
08:35 TOC
08:35 Fuel Weight: 6319 Lb
08:35 TOD
08:35 Fuel Weight: 6319 Lb
08:35 TOC
08:35 Fuel Weight: 6318 Lb
08:39 Wind:284º@009 Knots Heading: 106º Ground Speed: 511 Knots Altitude 45314 ft
08:54 Wind:330º@010 Knots Heading: 096º Ground Speed: 511 Knots Altitude 45311 ft
09:09 Wind:020º@013 Knots Heading: 105º Ground Speed: 507 Knots Altitude 45305 ft
09:24 Wind:049º@016 Knots Heading: 107º Ground Speed: 500 Knots Altitude 45239 ft
09:39 Wind:050º@015 Knots Heading: 108º Ground Speed: 501 Knots Altitude 45246 ft
09:54 Wind:044º@017 Knots Heading: 095º Ground Speed: 498 Knots Altitude 45196 ft
10:09 Wind:013º@012 Knots Heading: 097º Ground Speed: 503 Knots Altitude 45121 ft
10:24 Wind:010º@021 Knots Heading: 104º Ground Speed: 510 Knots Altitude 45101 ft
10:28 TOD
10:28 Fuel Weight: 4138 Lb
10:39 Wind:002º@023 Knots Heading: 105º Ground Speed: 420 Knots Altitude 20521 ft
10:52 Flaps:2 at 188 Knots
10:53 Flaps:3 at 159 Knots
10:53 Gear Down: 159 Knots
10:53 Flaps:4 at 144 Knots
10:53 Flaps:5 at 137 Knots
10:54 Wind:092º@006 Knots Heading: 223º Ground Speed: 134 Knots Altitude 918 ft
10:55 TouchDown:Rate -206 ft/min Speed: 116 Knots
10:55 VATSIM:LCLK 271030Z 12007KT CAVOK 27/09 Q1014 NOSIG
10:55 Land
10:55 Wind:095º@006 Knots
10:55 Heading: 222º
10:55 Flight Duration: 03:16
10:55 Landing Weight: 26793 Lbs
10:55 POS N34º 52´ 24´´ E033º 37´ 24´´
10:58 Parking brakes on
10:58 Block to Block Duration: 03:25
10:58 Final Fuel: 3827 Lbls
10:58 Spent Fuel: 4124 Lbls
10:58 Flight Length: 1564 NM
10:58 TOD LandLength: 160 NM

Exportar CSV

Powered by Drupal - Modified by Danger4k